Time;durP1;ratioP1;P1;durP2;ratioP2;P2;SDS_P1;SDS_P2;PMS_P1;PMS_P2;Temp;Humidity;BMP_temperature;BMP_pressure;BME280_temperature;BME280_humidity;BME280_pressure;Samples;Min_cycle;Max_cycle;Signal;HPM_P1;HPM_P2
2023/01/03 00:01:35;;;;;;;24.37;17.23;;;8.00;99.90;;;;;;5032696;28;20617;-67
2023/01/03 00:04:02;;;;;;;26.47;17.80;;;7.90;99.90;;;;;;5048623;28;20251;-70
2023/01/03 00:06:31;;;;;;;26.93;18.17;;;7.90;99.90;;;;;;5057824;28;20288;-69
2023/01/03 00:08:59;;;;;;;26.13;18.10;;;7.90;99.90;;;;;;5045885;28;20204;-68
2023/01/03 00:14:16;;;;;;;28.97;18.97;;;7.80;99.90;;;;;;5071870;28;20191;-68
2023/01/03 00:16:43;;;;;;;28.30;19.43;;;7.80;99.90;;;;;;5072213;28;20211;-68
2023/01/03 00:19:11;;;;;;;26.80;18.30;;;7.80;99.90;;;;;;5071565;28;20200;-69
2023/01/03 00:21:38;;;;;;;30.63;19.80;;;7.80;99.90;;;;;;5072180;28;20201;-68
2023/01/03 00:24:06;;;;;;;30.27;19.33;;;7.80;99.90;;;;;;5070941;28;20204;-69
2023/01/03 00:26:35;;;;;;;25.80;18.53;;;7.70;99.90;;;;;;5051700;28;20209;-68
2023/01/03 00:29:02;;;;;;;30.50;19.33;;;7.70;99.90;;;;;;5051526;28;20197;-69
2023/01/03 00:31:29;;;;;;;30.63;18.80;;;7.60;99.90;;;;;;5051674;28;20213;-69
2023/01/03 00:33:55;;;;;;;27.83;18.87;;;7.60;99.90;;;;;;5046093;28;20197;-68
2023/01/03 00:36:22;;;;;;;30.00;19.57;;;7.60;99.90;;;;;;5052040;28;20213;-69
2023/01/03 00:38:49;;;;;;;30.83;20.63;;;7.60;99.90;;;;;;5051801;28;20677;-68
2023/01/03 00:41:18;;;;;;;28.47;19.50;;;7.50;99.90;;;;;;5050112;28;20221;-68
2023/01/03 00:43:48;;;;;;;30.30;19.37;;;7.50;99.90;;;;;;5035917;28;20546;-68
2023/01/03 00:46:17;;;;;;;30.73;19.37;;;7.50;99.90;;;;;;5045387;28;20237;-69
2023/01/03 00:48:44;;;;;;;28.43;19.20;;;7.40;99.90;;;;;;5031739;28;20560;-69
2023/01/03 00:51:14;;;;;;;28.47;19.77;;;7.40;99.90;;;;;;5031490;28;20205;-70
2023/01/03 00:53:42;;;;;;;29.17;19.37;;;7.40;99.90;;;;;;5031210;28;20261;-69
2023/01/03 00:56:10;;;;;;;25.77;18.30;;;7.40;99.90;;;;;;5031720;28;20702;-70
2023/01/03 00:58:38;;;;;;;25.43;18.60;;;7.40;99.90;;;;;;5038691;28;20670;-69
2023/01/03 01:01:08;;;;;;;27.40;18.03;;;7.30;99.90;;;;;;5051353;28;20240;-69
2023/01/03 01:03:36;;;;;;;29.70;19.43;;;7.30;99.90;;;;;;5051328;28;20246;-69
2023/01/03 01:06:11;;;;;;;28.90;19.60;;;7.30;99.90;;;;;;5051351;28;20244;-69
2023/01/03 01:08:38;;;;;;;29.47;19.67;;;7.30;99.90;;;;;;5051801;28;20200;-70
2023/01/03 01:11:05;;;;;;;28.73;19.20;;;7.30;99.90;;;;;;5038838;28;20205;-69
2023/01/03 01:13:33;;;;;;;27.93;19.00;;;7.30;99.90;;;;;;5031493;28;20201;-69
2023/01/03 01:16:02;;;;;;;28.93;19.20;;;7.30;99.90;;;;;;5031305;28;20205;-69
2023/01/03 01:18:30;;;;;;;28.90;19.13;;;7.30;99.90;;;;;;5033553;28;20210;-70
2023/01/03 01:20:58;;;;;;;26.93;18.77;;;7.30;99.90;;;;;;5051290;28;20229;-70
2023/01/03 01:23:25;;;;;;;29.00;18.90;;;7.20;99.90;;;;;;5051560;28;20216;-68
2023/01/03 01:25:51;;;;;;;26.77;18.43;;;7.20;99.90;;;;;;5051430;28;20213;-70
2023/01/03 01:28:18;;;;;;;28.37;18.20;;;7.20;99.90;;;;;;5050487;28;20212;-70
2023/01/03 01:30:45;;;;;;;28.47;18.63;;;7.20;99.90;;;;;;5031256;28;20200;-69
2023/01/03 01:33:12;;;;;;;26.90;18.80;;;7.20;99.90;;;;;;5031515;28;20206;-69
2023/01/03 01:35:40;;;;;;;28.23;18.87;;;7.20;99.90;;;;;;5031235;28;20210;-68
2023/01/03 01:38:07;;;;;;;29.27;18.93;;;7.20;99.90;;;;;;5030187;28;20210;-70
2023/01/03 01:40:33;;;;;;;28.10;18.83;;;7.20;99.90;;;;;;5031031;28;20229;-69
2023/01/03 01:45:57;;;;;;;23.70;17.70;;;7.20;99.90;;;;;;5030253;28;20201;-71
2023/01/03 01:48:24;;;;;;;26.10;17.83;;;7.20;99.90;;;;;;5031350;28;20210;-70
2023/01/03 01:50:55;;;;;;;25.70;17.33;;;7.20;99.90;;;;;;5035426;28;20198;-71
2023/01/03 01:53:25;;;;;;;25.10;18.30;;;7.20;99.90;;;;;;5045539;28;20209;-70
2023/01/03 01:55:54;;;;;;;25.70;17.10;;;7.20;99.90;;;;;;5051252;28;20220;-70
2023/01/03 01:58:23;;;;;;;29.07;19.60;;;7.20;99.90;;;;;;5055034;28;20612;-69
2023/01/03 02:00:50;;;;;;;27.97;18.20;;;7.20;99.90;;;;;;5054566;28;20225;-69
2023/01/03 02:03:16;;;;;;;26.43;17.50;;;7.20;99.90;;;;;;5052757;28;20237;-70
2023/01/03 02:05:48;;;;;;;28.40;18.50;;;7.20;99.90;;;;;;5046075;28;20204;-69
2023/01/03 02:08:16;;;;;;;26.83;18.37;;;7.20;99.90;;;;;;5035041;28;20528;-69
2023/01/03 02:11:01;;;;;;;27.00;18.37;;;7.20;99.90;;;;;;5034321;28;20263;-69
2023/01/03 02:13:33;;;;;;;26.57;18.30;;;7.20;99.90;;;;;;5034719;28;20194;-69
2023/01/03 02:16:27;;;;;;;28.77;19.23;;;7.20;99.90;;;;;;5034607;28;20194;-70
2023/01/03 02:19:03;;;;;;;28.57;18.80;;;7.20;99.90;;;;;;5045306;28;20210;-71
2023/01/03 02:22:04;;;;;;;26.47;18.23;;;7.20;99.90;;;;;;5054544;28;20238;-70
2023/01/03 02:24:53;;;;;;;29.10;20.37;;;7.30;99.90;;;;;;5040401;28;20221;-71
2023/01/03 02:28:02;;;;;;;29.30;19.43;;;7.30;99.90;;;;;;5034633;28;20201;-70
2023/01/03 02:30:37;;;;;;;32.67;22.03;;;7.30;99.90;;;;;;5034519;28;20545;-70
2023/01/03 02:33:22;;;;;;;30.57;20.70;;;7.30;99.90;;;;;;5034231;28;20201;-69
2023/01/03 02:35:58;;;;;;;27.20;19.60;;;7.30;99.90;;;;;;5034341;28;20236;-69
2023/01/03 02:38:32;;;;;;;27.77;20.07;;;7.30;99.90;;;;;;5034168;28;20229;-69
2023/01/03 02:41:06;;;;;;;24.73;18.90;;;7.30;99.90;;;;;;5033683;28;20213;-69
2023/01/03 02:43:38;;;;;;;28.40;19.53;;;7.30;99.90;;;;;;5039547;28;20197;-69
2023/01/03 02:46:12;;;;;;;26.70;19.23;;;7.40;99.90;;;;;;5054051;28;20190;-69
2023/01/03 02:48:48;;;;;;;26.40;19.03;;;7.40;99.90;;;;;;5053895;28;20189;-69
2023/01/03 02:51:21;;;;;;;26.33;18.50;;;7.40;99.90;;;;;;5051386;28;20196;-69
2023/01/03 02:53:50;;;;;;;27.83;19.10;;;7.40;99.90;;;;;;5033828;28;20609;-68
2023/01/03 02:56:21;;;;;;;26.03;18.40;;;7.40;99.90;;;;;;5034124;28;20209;-69
2023/01/03 02:58:52;;;;;;;28.07;20.27;;;7.40;99.90;;;;;;5033816;28;20197;-70
2023/01/03 03:01:20;;;;;;;25.33;18.50;;;7.40;99.90;;;;;;5047754;28;20717;-70
2023/01/03 03:03:48;;;;;;;28.57;19.23;;;7.40;99.90;;;;;;5053126;28;20240;-69
2023/01/03 03:06:21;;;;;;;26.83;18.87;;;7.40;99.90;;;;;;5053608;28;20225;-69
2023/01/03 03:08:48;;;;;;;26.83;18.57;;;7.40;99.90;;;;;;5051963;28;20687;-70
2023/01/03 03:14:07;;;;;;;26.53;18.87;;;7.40;99.90;;;;;;5053417;28;20188;-70
2023/01/03 03:16:47;;;;;;;26.57;18.47;;;7.40;99.90;;;;;;5052998;28;20185;-70
2023/01/03 03:25:14;;;;;;;26.77;18.27;;;7.40;99.90;;;;;;5053062;28;20224;-69
2023/01/03 03:30:32;;;;;;;26.67;18.00;;;7.40;99.90;;;;;;5052705;28;20248;-69
2023/01/03 03:33:05;;;;;;;25.43;18.10;;;7.40;99.90;;;;;;5052930;28;20211;-69
2023/01/03 03:35:33;;;;;;;28.90;19.70;;;7.40;99.90;;;;;;5052914;28;20542;-69
2023/01/03 03:38:02;;;;;;;23.47;16.50;;;7.40;99.90;;;;;;5051553;28;20214;-69
2023/01/03 03:46:14;;;;;;;25.40;17.47;;;7.30;99.90;;;;;;5052611;28;20659;-69
2023/01/03 03:51:42;;;;;;;29.47;20.13;;;7.30;99.90;;;;;;5015129;28;20675;-70
2023/01/03 03:54:13;;;;;;;27.97;19.13;;;7.30;99.90;;;;;;5052769;28;20189;-68
2023/01/03 03:56:42;;;;;;;29.27;18.87;;;7.30;99.90;;;;;;5052180;28;20186;-69
2023/01/03 03:59:10;;;;;;;28.23;19.03;;;7.30;99.90;;;;;;5052655;28;20205;-68
2023/01/03 04:01:39;;;;;;;25.53;17.87;;;7.30;99.90;;;;;;5052242;28;20585;-68
2023/01/03 04:04:11;;;;;;;27.63;18.40;;;7.20;99.90;;;;;;5052053;28;20236;-68
2023/01/03 04:06:43;;;;;;;28.83;19.33;;;7.20;99.90;;;;;;5050940;28;20197;-68
2023/01/03 04:09:10;;;;;;;25.53;17.67;;;7.20;99.90;;;;;;5052604;28;20211;-68
2023/01/03 04:11:37;;;;;;;27.43;19.87;;;7.20;99.90;;;;;;5051946;28;20208;-69
2023/01/03 04:14:04;;;;;;;29.07;19.57;;;7.20;99.90;;;;;;5051091;28;20221;-70
2023/01/03 04:16:30;;;;;;;28.90;18.70;;;7.20;99.90;;;;;;5041633;28;20209;-70
2023/01/03 04:18:57;;;;;;;26.23;17.70;;;7.20;99.90;;;;;;5051679;28;20561;-70
2023/01/03 04:21:25;;;;;;;26.40;18.47;;;7.20;99.90;;;;;;5051876;28;20229;-68
2023/01/03 04:23:52;;;;;;;26.93;18.50;;;7.20;99.90;;;;;;5052223;28;20205;-68
2023/01/03 04:26:19;;;;;;;25.77;18.00;;;7.20;99.90;;;;;;5052239;28;20209;-69
2023/01/03 04:28:46;;;;;;;29.97;20.07;;;7.20;99.90;;;;;;5052074;28;20205;-69
2023/01/03 04:31:13;;;;;;;27.20;18.50;;;7.20;99.90;;;;;;5050865;28;20630;-69
2023/01/03 04:33:39;;;;;;;30.97;20.30;;;7.10;99.90;;;;;;5051796;28;20236;-68
2023/01/03 04:36:07;;;;;;;30.10;20.53;;;7.10;99.90;;;;;;5052042;28;20304;-69
2023/01/03 04:38:35;;;;;;;27.60;18.07;;;7.10;99.90;;;;;;5051512;28;20221;-69
2023/01/03 04:41:06;;;;;;;28.03;18.93;;;7.00;99.90;;;;;;5051839;28;20229;-70
2023/01/03 04:46:16;;;;;;;30.13;19.20;;;7.00;99.90;;;;;;5037350;28;20244;-69
2023/01/03 04:48:43;;;;;;;31.33;20.20;;;6.90;99.90;;;;;;5031328;28;20235;-69
2023/01/03 04:51:10;;;;;;;32.63;21.37;;;6.90;99.90;;;;;;5031799;28;20305;-69
2023/01/03 04:53:39;;;;;;;29.83;20.40;;;6.90;99.90;;;;;;5031397;28;20214;-69
2023/01/03 04:56:06;;;;;;;30.83;20.33;;;6.90;99.90;;;;;;5031195;28;20602;-69
2023/01/03 04:58:33;;;;;;;27.83;19.83;;;6.90;99.90;;;;;;5030853;28;20210;-69
2023/01/03 05:01:00;;;;;;;28.97;19.20;;;6.90;99.90;;;;;;5031141;28;20232;-70
2023/01/03 05:03:27;;;;;;;31.87;20.57;;;6.90;99.90;;;;;;5032354;28;20737;-70
2023/01/03 05:05:57;;;;;;;30.90;20.10;;;6.80;99.90;;;;;;5050218;28;20220;-69
2023/01/03 05:08:24;;;;;;;27.87;19.53;;;6.80;99.90;;;;;;5051356;28;20225;-70
2023/01/03 05:10:53;;;;;;;30.00;20.83;;;6.80;99.90;;;;;;5051469;28;20560;-69
2023/01/03 05:13:20;;;;;;;31.67;21.77;;;6.80;99.90;;;;;;5050844;28;20209;-69
2023/01/03 05:15:47;;;;;;;33.43;21.00;;;6.80;99.90;;;;;;5051355;28;20247;-69
2023/01/03 05:18:14;;;;;;;27.53;20.47;;;6.80;99.90;;;;;;5048811;28;20216;-69
2023/01/03 05:26:13;;;;;;;30.27;21.60;;;6.70;99.90;;;;;;5051336;28;20767;-71
2023/01/03 05:28:41;;;;;;;28.27;19.50;;;6.70;99.90;;;;;;5051417;28;20193;-70
2023/01/03 05:31:08;;;;;;;30.93;20.10;;;6.70;99.90;;;;;;5053536;28;20292;-71
2023/01/03 05:33:37;;;;;;;29.37;19.60;;;6.60;99.90;;;;;;5054895;28;20213;-70
2023/01/03 05:36:04;;;;;;;29.60;19.47;;;6.70;99.90;;;;;;5053895;28;20217;-69
2023/01/03 05:38:30;;;;;;;28.50;18.63;;;6.60;99.90;;;;;;5054669;28;20213;-70
2023/01/03 05:40:57;;;;;;;30.40;19.87;;;6.60;99.90;;;;;;5055134;28;20620;-70
2023/01/03 05:43:25;;;;;;;28.67;19.57;;;6.60;99.90;;;;;;5054949;28;20202;-69
2023/01/03 05:45:53;;;;;;;29.57;19.70;;;6.60;99.90;;;;;;5051372;28;20201;-71
2023/01/03 05:48:21;;;;;;;25.40;18.17;;;6.60;99.90;;;;;;5054654;28;20202;-68
2023/01/03 05:50:49;;;;;;;25.87;17.90;;;6.60;99.90;;;;;;5051830;28;20208;-70
2023/01/03 05:53:16;;;;;;;27.43;17.80;;;6.60;99.90;;;;;;5054622;28;20210;-71
2023/01/03 05:55:43;;;;;;;26.27;17.60;;;6.60;99.90;;;;;;5048742;28;20233;-71
2023/01/03 05:58:11;;;;;;;28.57;20.17;;;6.60;99.90;;;;;;5034685;28;20202;-72
2023/01/03 06:00:39;;;;;;;26.27;19.03;;;6.50;99.90;;;;;;5034785;28;20206;-69
2023/01/03 06:03:06;;;;;;;30.30;19.67;;;6.50;99.90;;;;;;5034464;28;20236;-71
2023/01/03 06:05:33;;;;;;;27.20;18.40;;;6.50;99.90;;;;;;5037131;28;20265;-71
2023/01/03 06:08:01;;;;;;;27.00;18.53;;;6.50;99.90;;;;;;5034668;28;20571;-68
2023/01/03 06:10:28;;;;;;;25.50;17.87;;;6.50;99.90;;;;;;5034384;28;20225;-70
2023/01/03 06:12:54;;;;;;;29.83;18.97;;;6.50;99.90;;;;;;5034370;28;20204;-70
2023/01/03 06:15:21;;;;;;;30.23;19.20;;;6.50;99.90;;;;;;5036151;28;20210;-70
2023/01/03 06:17:56;;;;;;;28.47;19.43;;;6.50;99.90;;;;;;5034867;28;20233;-69
2023/01/03 06:20:23;;;;;;;27.43;19.23;;;6.50;99.90;;;;;;5034325;28;20485;-70
2023/01/03 06:22:50;;;;;;;30.23;19.30;;;6.50;99.90;;;;;;5035914;28;20706;-71
2023/01/03 06:25:17;;;;;;;27.70;19.13;;;6.50;99.90;;;;;;5035715;28;20706;-69
2023/01/03 06:27:44;;;;;;;33.03;20.37;;;6.50;99.90;;;;;;5054218;28;20319;-68
2023/01/03 06:30:11;;;;;;;26.80;18.50;;;6.50;99.90;;;;;;5053824;28;20205;-70
2023/01/03 06:32:38;;;;;;;28.53;19.13;;;6.50;99.90;;;;;;5046845;28;20209;-69
2023/01/03 06:35:07;;;;;;;29.80;18.97;;;6.50;99.90;;;;;;5033516;28;20217;-69
2023/01/03 06:37:34;;;;;;;27.00;18.67;;;6.50;99.90;;;;;;5033883;28;20249;-69
2023/01/03 06:40:01;;;;;;;26.57;17.93;;;6.50;99.90;;;;;;5034074;28;20206;-71
2023/01/03 06:42:41;;;;;;;27.17;18.97;;;6.50;99.90;;;;;;5032271;28;20323;-68
2023/01/03 06:53:33;;;;;;;25.57;17.47;;;6.50;99.90;;;;;;5053470;28;20259;-68
2023/01/03 06:56:00;;;;;;;26.23;18.30;;;6.60;99.90;;;;;;5045108;28;20249;-70
2023/01/03 06:58:27;;;;;;;25.90;18.33;;;6.60;99.90;;;;;;5033414;28;20217;-70
2023/01/03 07:00:55;;;;;;;29.63;18.70;;;6.60;99.90;;;;;;5033579;28;20230;-70
2023/01/03 07:03:22;;;;;;;28.83;19.27;;;6.60;99.90;;;;;;5033528;28;20234;-71
2023/01/03 07:05:51;;;;;;;27.53;19.50;;;6.60;99.90;;;;;;5037056;28;20612;-71
2023/01/03 07:08:18;;;;;;;27.90;18.50;;;6.60;99.90;;;;;;5047882;28;20206;-71
2023/01/03 07:10:45;;;;;;;27.63;19.17;;;6.60;99.90;;;;;;5043983;28;20198;-70
2023/01/03 07:15:56;;;;;;;26.87;18.67;;;6.60;99.90;;;;;;5043545;28;20186;-75
2023/01/03 07:18:24;;;;;;;28.47;18.77;;;6.60;99.90;;;;;;5041585;28;20229;-76
2023/01/03 07:20:53;;;;;;;27.03;18.47;;;6.60;99.90;;;;;;5042716;28;20202;-76
2023/01/03 07:23:20;;;;;;;31.00;19.67;;;6.60;99.90;;;;;;5042515;28;20228;-77
2023/01/03 07:25:47;;;;;;;27.97;19.40;;;6.60;99.90;;;;;;5042446;28;20194;-78
2023/01/03 07:28:14;;;;;;;28.43;19.73;;;6.60;99.90;;;;;;5042234;28;20276;-77
2023/01/03 07:30:43;;;;;;;30.03;20.77;;;6.60;99.90;;;;;;5039122;28;20201;-76
2023/01/03 07:33:12;;;;;;;33.43;21.23;;;6.60;99.90;;;;;;5038710;28;20198;-77
2023/01/03 07:35:39;;;;;;;30.77;20.97;;;6.70;99.90;;;;;;5041918;28;20202;-76
2023/01/03 07:38:08;;;;;;;30.87;21.47;;;6.70;99.90;;;;;;5046422;28;20739;-79
2023/01/03 07:40:34;;;;;;;27.60;18.77;;;6.70;99.90;;;;;;5053254;28;20205;-78
2023/01/03 07:45:46;;;;;;;30.50;18.37;;;6.90;99.90;;;;;;5050154;28;20329;-76
2023/01/03 07:48:14;;;;;;;25.87;17.50;;;6.90;99.90;;;;;;5047703;28;20225;-75
2023/01/03 07:50:41;;;;;;;24.40;17.17;;;7.00;99.90;;;;;;5045055;28;20240;-78
2023/01/03 07:53:15;;;;;;;24.73;17.50;;;7.00;99.90;;;;;;5051366;28;20201;-75
2023/01/03 07:55:42;;;;;;;24.93;17.90;;;7.10;99.90;;;;;;5042732;28;20194;-74
2023/01/03 07:58:09;;;;;;;25.60;17.90;;;7.10;99.90;;;;;;5042795;28;20656;-75
2023/01/03 08:00:36;;;;;;;25.97;17.30;;;7.20;99.90;;;;;;5036645;28;20206;-78
2023/01/03 08:03:03;;;;;;;25.50;16.50;;;7.20;99.90;;;;;;5047027;28;20238;-77
2023/01/03 08:05:29;;;;;;;24.17;16.33;;;7.30;99.90;;;;;;5040160;28;20198;-76
2023/01/03 08:07:56;;;;;;;22.03;16.13;;;7.30;99.90;;;;;;5039530;28;20198;-76
2023/01/03 08:13:18;;;;;;;24.67;16.43;;;7.40;99.90;;;;;;5040585;28;20201;-74
2023/01/03 08:15:45;;;;;;;23.40;15.97;;;7.40;99.90;;;;;;5042459;28;20198;-74
2023/01/03 08:18:13;;;;;;;22.40;16.23;;;7.50;99.90;;;;;;5038336;28;20212;-75
2023/01/03 08:20:40;;;;;;;21.53;16.40;;;7.50;99.90;;;;;;5039348;28;20194;-76
2023/01/03 08:23:07;;;;;;;20.50;15.57;;;7.50;99.90;;;;;;5041200;28;20686;-74
2023/01/03 08:25:35;;;;;;;22.43;16.20;;;7.60;99.90;;;;;;5041705;28;20198;-74
2023/01/03 08:28:03;;;;;;;24.83;17.17;;;7.60;99.90;;;;;;5038491;28;20201;-77
2023/01/03 08:30:30;;;;;;;22.93;15.93;;;7.60;99.90;;;;;;5041829;28;20206;-78
2023/01/03 08:33:01;;;;;;;23.33;16.23;;;7.70;99.90;;;;;;5041499;28;20210;-75
2023/01/03 08:35:32;;;;;;;24.90;18.03;;;7.70;99.90;;;;;;5030685;28;20194;-76
2023/01/03 08:38:01;;;;;;;23.27;16.73;;;7.70;99.90;;;;;;5030477;28;20229;-77
2023/01/03 08:40:29;;;;;;;24.93;17.17;;;7.80;99.90;;;;;;5030189;28;20666;-76
2023/01/03 08:42:58;;;;;;;25.87;16.77;;;7.80;99.90;;;;;;5036395;28;20672;-75
2023/01/03 08:45:26;;;;;;;22.83;16.97;;;7.90;99.90;;;;;;5032134;28;20198;-76
2023/01/03 08:47:56;;;;;;;23.97;16.43;;;7.90;99.90;;;;;;5039398;28;20198;-76
2023/01/03 08:50:23;;;;;;;26.03;16.57;;;7.90;99.90;;;;;;5041151;28;20247;-75
2023/01/03 08:52:50;;;;;;;21.80;16.17;;;8.00;99.90;;;;;;5038858;28;20516;-74
2023/01/03 08:55:17;;;;;;;26.73;17.87;;;8.00;99.90;;;;;;5042202;28;20196;-74
2023/01/03 08:57:44;;;;;;;27.53;17.67;;;8.10;99.90;;;;;;5041200;28;20566;-76
2023/01/03 09:00:13;;;;;;;26.50;16.83;;;8.10;99.90;;;;;;5040561;28;20524;-77
2023/01/03 09:02:40;;;;;;;26.87;16.90;;;8.20;99.90;;;;;;5040796;28;20253;-76
2023/01/03 09:05:08;;;;;;;25.83;16.63;;;8.20;99.90;;;;;;5038655;28;20579;-74
2023/01/03 09:07:35;;;;;;;24.23;16.43;;;8.30;99.90;;;;;;5041742;28;20284;-74
2023/01/03 09:10:02;;;;;;;24.07;16.67;;;8.30;99.90;;;;;;5043019;28;20213;-75
2023/01/03 09:12:29;;;;;;;25.03;16.60;;;8.40;99.90;;;;;;5037452;28;20202;-74
2023/01/03 09:14:55;;;;;;;24.63;15.80;;;8.40;99.90;;;;;;5042401;28;20254;-75
2023/01/03 09:17:24;;;;;;;23.93;16.20;;;8.50;99.90;;;;;;5044730;28;20209;-75
2023/01/03 09:19:51;;;;;;;20.83;15.70;;;8.50;99.90;;;;;;5050587;28;20201;-76
2023/01/03 09:22:17;;;;;;;24.93;16.53;;;8.60;99.90;;;;;;5031498;28;20222;-77
2023/01/03 09:24:44;;;;;;;26.53;16.33;;;8.70;99.90;;;;;;5031467;28;20208;-78
2023/01/03 09:27:11;;;;;;;24.53;16.67;;;8.70;99.90;;;;;;5031767;28;20674;-76
2023/01/03 09:29:38;;;;;;;24.83;15.93;;;8.80;99.90;;;;;;5044414;28;20678;-77
2023/01/03 09:32:05;;;;;;;23.83;15.13;;;8.80;99.90;;;;;;5050773;28;20197;-74
2023/01/03 09:34:33;;;;;;;22.87;15.83;;;8.90;99.90;;;;;;5031210;28;20213;-74
2023/01/03 09:37:00;;;;;;;21.47;15.90;;;8.90;99.90;;;;;;5041884;28;20228;-76
2023/01/03 09:39:26;;;;;;;26.13;16.47;;;9.00;99.90;;;;;;5051298;28;20217;-76
2023/01/03 09:44:34;;;;;;;21.77;14.83;;;9.10;99.90;;;;;;5038837;28;20246;-75
2023/01/03 09:47:02;;;;;;;24.83;16.07;;;9.20;99.90;;;;;;5038972;28;20652;-76
2023/01/03 09:49:28;;;;;;;23.20;15.77;;;9.20;99.90;;;;;;5039126;28;20201;-74
2023/01/03 10:03:43;;;;;;;23.77;14.80;;;9.60;99.90;;;;;;5041662;28;20245;-74
2023/01/03 10:06:24;;;;;;;22.27;14.87;;;9.60;99.90;;;;;;5031087;28;20206;-74
2023/01/03 10:09:13;;;;;;;25.53;15.07;;;9.70;99.90;;;;;;5034039;28;20190;-75
2023/01/03 10:11:49;;;;;;;20.60;14.17;;;9.70;99.90;;;;;;5038200;28;20249;-75
2023/01/03 10:14:31;;;;;;;20.13;13.27;;;9.80;99.90;;;;;;5049980;28;20631;-75
2023/01/03 10:17:12;;;;;;;24.00;14.20;;;9.90;99.90;;;;;;5044643;28;20206;-74
2023/01/03 10:20:07;;;;;;;19.17;13.43;;;9.90;99.90;;;;;;5033920;28;20191;-77
2023/01/03 10:22:35;;;;;;;22.77;14.47;;;10.00;99.90;;;;;;5047207;28;20252;-75
2023/01/03 10:25:11;;;;;;;21.27;14.50;;;10.00;99.90;;;;;;5054738;28;20539;-75
2023/01/03 10:27:44;;;;;;;20.80;13.67;;;10.10;99.90;;;;;;5050307;28;20240;-75
2023/01/03 10:30:15;;;;;;;19.43;13.23;;;10.10;99.90;;;;;;5054407;28;20627;-74
2023/01/03 10:33:00;;;;;;;19.60;13.17;;;10.20;99.90;;;;;;5053975;28;20196;-74
2023/01/03 10:35:29;;;;;;;23.00;14.63;;;10.20;99.90;;;;;;5054171;28;20205;-73
2023/01/03 10:37:57;;;;;;;24.97;13.83;;;10.30;99.90;;;;;;5049609;28;20568;-74
2023/01/03 10:40:35;;;;;;;21.33;13.60;;;10.30;99.90;;;;;;5058588;28;20211;-74
2023/01/03 10:43:14;;;;;;;21.43;13.30;;;10.40;99.90;;;;;;5053764;28;20209;-74
2023/01/03 10:45:52;;;;;;;17.53;12.90;;;10.40;99.90;;;;;;5053906;28;20593;-75
2023/01/03 10:48:19;;;;;;;20.27;13.27;;;10.40;99.90;;;;;;5052418;28;20208;-69
2023/01/03 10:50:46;;;;;;;20.17;12.77;;;10.50;99.90;;;;;;5046308;28;20213;-69
2023/01/03 10:53:16;;;;;;;22.50;13.60;;;10.50;99.90;;;;;;5033386;28;20205;-70
2023/01/03 10:55:50;;;;;;;19.47;12.17;;;10.60;99.90;;;;;;5030248;28;20209;-72
2023/01/03 10:58:21;;;;;;;19.43;12.00;;;10.60;99.90;;;;;;5026480;28;20205;-71
2023/01/03 11:00:49;;;;;;;17.27;11.63;;;10.70;99.90;;;;;;5032572;28;20216;-71
2023/01/03 11:03:18;;;;;;;17.30;11.07;;;10.70;99.90;;;;;;5043374;28;20236;-71
2023/01/03 11:05:47;;;;;;;20.40;11.40;;;10.70;99.90;;;;;;5053721;28;20209;-71
2023/01/03 11:08:17;;;;;;;18.63;11.97;;;10.70;99.90;;;;;;5059680;28;20659;-72
2023/01/03 11:10:57;;;;;;;17.70;11.40;;;10.70;99.90;;;;;;5055551;28;20209;-71
2023/01/03 11:13:29;;;;;;;18.73;11.97;;;10.70;99.90;;;;;;5036840;28;20205;-70
2023/01/03 11:15:57;;;;;;;17.80;12.20;;;10.70;99.90;;;;;;5039671;28;20210;-70
2023/01/03 11:18:27;;;;;;;20.87;13.60;;;10.70;99.90;;;;;;5034558;28;20206;-73
2023/01/03 11:21:05;;;;;;;17.53;11.23;;;10.70;99.90;;;;;;5037973;28;20607;-70
2023/01/03 11:23:56;;;;;;;17.37;11.00;;;10.70;99.90;;;;;;5032500;28;20304;-69
2023/01/03 11:26:39;;;;;;;17.60;11.40;;;10.80;99.90;;;;;;5033216;28;20603;-70
2023/01/03 11:29:31;;;;;;;16.43;10.93;;;10.80;99.90;;;;;;5033299;28;20230;-72
2023/01/03 11:32:07;;;;;;;14.60;10.47;;;10.80;99.90;;;;;;5033485;28;20194;-72
2023/01/03 11:34:51;;;;;;;17.30;11.17;;;10.80;99.90;;;;;;5033307;28;20186;-69
2023/01/03 11:37:26;;;;;;;16.70;11.37;;;10.90;99.90;;;;;;5033535;28;20200;-71
2023/01/03 11:40:02;;;;;;;16.23;10.67;;;10.90;99.90;;;;;;5033485;28;20200;-70
2023/01/03 11:42:42;;;;;;;16.10;11.23;;;10.90;99.90;;;;;;5032989;28;20636;-70
2023/01/03 11:45:37;;;;;;;15.73;11.23;;;11.00;99.90;;;;;;5033407;28;20549;-70
2023/01/03 11:48:18;;;;;;;15.70;10.70;;;11.00;99.90;;;;;;5033302;28;20194;-70
2023/01/03 11:50:52;;;;;;;19.63;11.47;;;11.00;99.90;;;;;;5033070;28;20201;-72
2023/01/03 11:53:34;;;;;;;18.63;11.13;;;11.00;99.90;;;;;;5033113;28;20194;-69
2023/01/03 11:56:14;;;;;;;16.70;10.67;;;11.00;99.90;;;;;;5032787;28;20191;-70
2023/01/03 11:58:59;;;;;;;16.37;11.03;;;10.90;99.90;;;;;;5032862;28;20636;-70
2023/01/03 12:01:45;;;;;;;17.67;10.80;;;10.90;99.90;;;;;;5038669;28;20204;-71
2023/01/03 12:04:27;;;;;;;15.40;10.20;;;10.90;99.90;;;;;;5044824;28;20324;-70
2023/01/03 12:07:15;;;;;;;14.67;10.40;;;10.80;99.90;;;;;;5051274;28;20232;-70
2023/01/03 12:09:50;;;;;;;17.77;11.03;;;10.80;99.90;;;;;;5032635;28;20190;-71
2023/01/03 12:12:44;;;;;;;14.90;10.57;;;10.80;99.90;;;;;;5032535;28;20190;-69
2023/01/03 12:15:19;;;;;;;14.67;10.10;;;10.90;99.90;;;;;;5032478;28;20240;-71
2023/01/03 12:17:51;;;;;;;16.80;11.57;;;10.90;99.90;;;;;;5032558;28;20189;-69
2023/01/03 12:20:22;;;;;;;17.23;11.13;;;10.90;99.90;;;;;;5032608;28;20201;-70
2023/01/03 12:22:53;;;;;;;17.00;10.57;;;10.90;99.90;;;;;;5032237;28;20194;-71
2023/01/03 12:25:25;;;;;;;16.73;10.47;;;10.90;99.90;;;;;;5032332;28;20193;-71
2023/01/03 12:27:56;;;;;;;15.60;10.30;;;11.00;99.90;;;;;;5032670;28;20194;-71
2023/01/03 12:30:36;;;;;;;16.40;10.70;;;11.00;99.90;;;;;;5032777;28;20201;-73
2023/01/03 12:33:13;;;;;;;15.70;10.20;;;11.00;99.90;;;;;;5032592;28;20186;-71
2023/01/03 12:35:46;;;;;;;14.37;10.43;;;11.10;99.90;;;;;;5032251;28;20221;-72
2023/01/03 12:38:13;;;;;;;14.10;9.83;;;11.10;99.90;;;;;;5032455;28;20194;-71
2023/01/03 12:40:46;;;;;;;18.57;10.50;;;11.10;99.90;;;;;;5031502;28;20210;-72
2023/01/03 12:43:20;;;;;;;19.40;10.50;;;11.10;99.90;;;;;;5032221;28;20241;-71
2023/01/03 12:45:55;;;;;;;14.90;9.97;;;11.10;99.90;;;;;;5032049;28;20213;-70
2023/01/03 12:48:45;;;;;;;13.43;9.80;;;11.10;99.90;;;;;;5032232;28;20217;-70
2023/01/03 12:51:20;;;;;;;14.83;9.20;;;11.10;99.90;;;;;;5032109;28;20654;-72
2023/01/03 12:53:51;;;;;;;13.10;8.63;;;11.10;99.90;;;;;;5032077;28;20189;-68
2023/01/03 12:56:38;;;;;;;15.40;9.47;;;11.10;99.90;;;;;;5032011;28;20201;-72
2023/01/03 12:59:21;;;;;;;15.17;8.83;;;11.10;99.90;;;;;;5031912;28;20200;-71
2023/01/03 13:01:53;;;;;;;11.97;8.30;;;11.10;99.90;;;;;;5032095;28;20654;-71
2023/01/03 13:04:23;;;;;;;16.87;11.93;;;11.10;99.90;;;;;;5047638;28;20237;-72
2023/01/03 13:06:54;;;;;;;12.47;8.60;;;11.10;99.90;;;;;;5043974;28;20582;-71
2023/01/03 13:09:30;;;;;;;13.30;8.30;;;11.10;99.90;;;;;;5031289;28;20186;-71
2023/01/03 13:12:08;;;;;;;11.83;8.03;;;11.10;99.90;;;;;;5032739;28;20186;-73
2023/01/03 13:14:52;;;;;;;13.97;8.23;;;11.00;99.90;;;;;;5030426;28;20194;-71
2023/01/03 13:17:21;;;;;;;12.07;8.27;;;11.00;99.90;;;;;;5031338;28;20280;-70
2023/01/03 13:20:26;;;;;;;13.47;8.90;;;10.90;99.90;;;;;;5031465;28;20241;-69
2023/01/03 13:22:54;;;;;;;10.40;7.37;;;10.90;99.90;;;;;;5031425;28;20679;-70
2023/01/03 13:25:38;;;;;;;12.27;8.00;;;10.90;99.90;;;;;;5031512;28;20230;-69
2023/01/03 13:28:29;;;;;;;13.13;7.50;;;10.80;99.90;;;;;;5031550;28;20213;-71
2023/01/03 13:31:29;;;;;;;11.63;7.90;;;10.80;99.90;;;;;;5031697;28;20421;-71
2023/01/03 13:34:13;;;;;;;14.37;7.80;;;10.80;99.90;;;;;;5031314;28;20198;-70
2023/01/03 13:37:21;;;;;;;12.53;7.60;;;10.70;99.90;;;;;;5031726;28;20239;-70
2023/01/03 13:40:02;;;;;;;10.60;7.27;;;10.70;99.90;;;;;;5026214;28;20198;-76
2023/01/03 13:42:35;;;;;;;11.90;7.60;;;10.70;99.90;;;;;;5032600;28;20216;-78
2023/01/03 13:45:56;;;;;;;12.03;8.23;;;10.70;99.90;;;;;;5031738;28;20226;-70
2023/01/03 13:48:29;;;;;;;12.63;8.30;;;10.60;99.90;;;;;;4989802;28;20563;-72
2023/01/03 13:51:33;;;;;;;13.60;8.47;;;10.60;99.90;;;;;;5006443;28;20229;-72
2023/01/03 13:54:02;;;;;;;12.33;7.83;;;10.50;99.90;;;;;;5010925;28;20206;-73
2023/01/03 13:56:31;;;;;;;12.77;8.40;;;10.40;99.90;;;;;;4993329;28;20215;-75
2023/01/03 13:59:07;;;;;;;12.67;8.37;;;10.40;99.90;;;;;;4993276;28;20218;-78
2023/01/03 14:01:55;;;;;;;13.00;7.97;;;10.40;99.90;;;;;;4993194;28;20218;-69
2023/01/03 14:04:59;;;;;;;15.03;8.47;;;10.30;99.90;;;;;;4993251;28;20747;-76